sensor_id;sensor_type;location;lat;lon;timestamp;temperature;humidity
25112;DHT22;13092;51.996;4.458;2023-06-05T00:00:14;13.60;99.90
25112;DHT22;13092;51.996;4.458;2023-06-05T00:02:45;13.60;99.90
25112;DHT22;13092;51.996;4.458;2023-06-05T00:05:16;13.60;99.90
25112;DHT22;13092;51.996;4.458;2023-06-05T00:07:48;13.60;99.90
25112;DHT22;13092;51.996;4.458;2023-06-05T00:10:41;13.50;99.90
25112;DHT22;13092;51.996;4.458;2023-06-05T00:13:13;13.50;99.90
25112;DHT22;13092;51.996;4.458;2023-06-05T00:15:44;13.50;99.90
25112;DHT22;13092;51.996;4.458;2023-06-05T00:18:14;13.50;99.90
25112;DHT22;13092;51.996;4.458;2023-06-05T00:23:37;13.50;99.90
25112;DHT22;13092;51.996;4.458;2023-06-05T00:26:05;13.60;99.90
25112;DHT22;13092;51.996;4.458;2023-06-05T00:28:38;13.50;99.90
25112;DHT22;13092;51.996;4.458;2023-06-05T00:31:14;13.50;99.90
25112;DHT22;13092;51.996;4.458;2023-06-05T00:33:46;13.30;99.90
25112;DHT22;13092;51.996;4.458;2023-06-05T00:36:27;13.50;99.90
25112;DHT22;13092;51.996;4.458;2023-06-05T00:39:03;13.40;99.90
25112;DHT22;13092;51.996;4.458;2023-06-05T00:41:33;13.40;99.90
25112;DHT22;13092;51.996;4.458;2023-06-05T00:44:05;13.50;99.90
25112;DHT22;13092;51.996;4.458;2023-06-05T00:49:34;13.30;99.90
25112;DHT22;13092;51.996;4.458;2023-06-05T00:52:15;13.30;99.90
25112;DHT22;13092;51.996;4.458;2023-06-05T00:54:52;13.30;99.90
25112;DHT22;13092;51.996;4.458;2023-06-05T00:57:30;13.30;99.90
25112;DHT22;13092;51.996;4.458;2023-06-05T01:00:18;13.20;99.90
25112;DHT22;13092;51.996;4.458;2023-06-05T01:02:50;13.20;99.90
25112;DHT22;13092;51.996;4.458;2023-06-05T01:05:26;13.30;99.90
25112;DHT22;13092;51.996;4.458;2023-06-05T01:07:57;13.30;99.90
25112;DHT22;13092;51.996;4.458;2023-06-05T01:10:46;13.20;99.90
25112;DHT22;13092;51.996;4.458;2023-06-05T01:13:25;13.20;99.90
25112;DHT22;13092;51.996;4.458;2023-06-05T01:16:25;13.20;99.90
25112;DHT22;13092;51.996;4.458;2023-06-05T01:19:01;13.20;99.90
25112;DHT22;13092;51.996;4.458;2023-06-05T01:21:46;13.30;99.90
25112;DHT22;13092;51.996;4.458;2023-06-05T01:24:17;13.20;99.90
25112;DHT22;13092;51.996;4.458;2023-06-05T01:27:05;13.20;99.90
25112;DHT22;13092;51.996;4.458;2023-06-05T01:29:39;13.10;99.90
25112;DHT22;13092;51.996;4.458;2023-06-05T01:33:19;13.10;99.90
25112;DHT22;13092;51.996;4.458;2023-06-05T01:35:47;13.00;99.90
25112;DHT22;13092;51.996;4.458;2023-06-05T01:38:35;13.00;99.90
25112;DHT22;13092;51.996;4.458;2023-06-05T01:41:36;13.00;99.90
25112;DHT22;13092;51.996;4.458;2023-06-05T01:44:09;13.10;99.90
25112;DHT22;13092;51.996;4.458;2023-06-05T01:46:43;13.00;99.90
25112;DHT22;13092;51.996;4.458;2023-06-05T01:49:23;12.90;99.90
25112;DHT22;13092;51.996;4.458;2023-06-05T01:51:58;13.00;99.90
25112;DHT22;13092;51.996;4.458;2023-06-05T01:54:30;13.00;99.90
25112;DHT22;13092;51.996;4.458;2023-06-05T01:57:10;12.90;99.90
25112;DHT22;13092;51.996;4.458;2023-06-05T01:59:45;12.90;99.90
25112;DHT22;13092;51.996;4.458;2023-06-05T02:02:19;12.80;99.90
25112;DHT22;13092;51.996;4.458;2023-06-05T02:04:48;12.90;99.90
25112;DHT22;13092;51.996;4.458;2023-06-05T02:07:20;12.80;99.90
25112;DHT22;13092;51.996;4.458;2023-06-05T02:09:51;12.80;99.90
25112;DHT22;13092;51.996;4.458;2023-06-05T02:12:28;12.80;99.90
25112;DHT22;13092;51.996;4.458;2023-06-05T02:14:57;12.90;99.90
25112;DHT22;13092;51.996;4.458;2023-06-05T02:17:28;12.90;99.90
25112;DHT22;13092;51.996;4.458;2023-06-05T02:22:50;12.80;99.90
25112;DHT22;13092;51.996;4.458;2023-06-05T02:25:20;12.90;99.90
25112;DHT22;13092;51.996;4.458;2023-06-05T02:27:57;12.70;99.90
25112;DHT22;13092;51.996;4.458;2023-06-05T02:30:39;12.80;99.90
25112;DHT22;13092;51.996;4.458;2023-06-05T02:33:32;12.80;99.90
25112;DHT22;13092;51.996;4.458;2023-06-05T02:36:06;12.70;99.90
25112;DHT22;13092;51.996;4.458;2023-06-05T02:38:35;12.70;99.90
25112;DHT22;13092;51.996;4.458;2023-06-05T02:41:05;12.70;99.90
25112;DHT22;13092;51.996;4.458;2023-06-05T02:44:07;12.60;99.90
25112;DHT22;13092;51.996;4.458;2023-06-05T02:46:45;12.60;99.90
25112;DHT22;13092;51.996;4.458;2023-06-05T02:49:22;12.60;99.90
25112;DHT22;13092;51.996;4.458;2023-06-05T02:52:12;12.60;99.90
25112;DHT22;13092;51.996;4.458;2023-06-05T02:54:41;12.60;99.90
25112;DHT22;13092;51.996;4.458;2023-06-05T02:57:24;12.60;99.90
25112;DHT22;13092;51.996;4.458;2023-06-05T03:00:36;12.60;99.90
25112;DHT22;13092;51.996;4.458;2023-06-05T03:03:04;12.60;99.90
25112;DHT22;13092;51.996;4.458;2023-06-05T03:05:42;12.60;99.90
25112;DHT22;13092;51.996;4.458;2023-06-05T03:08:14;12.60;99.90
25112;DHT22;13092;51.996;4.458;2023-06-05T03:10:45;12.60;99.90
25112;DHT22;13092;51.996;4.458;2023-06-05T03:13:21;12.50;99.90
25112;DHT22;13092;51.996;4.458;2023-06-05T03:15:54;12.60;99.90
25112;DHT22;13092;51.996;4.458;2023-06-05T03:18:26;12.50;99.90
25112;DHT22;13092;51.996;4.458;2023-06-05T03:21:06;12.50;99.90
25112;DHT22;13092;51.996;4.458;2023-06-05T03:23:50;12.40;99.90
25112;DHT22;13092;51.996;4.458;2023-06-05T03:26:19;12.40;99.90
25112;DHT22;13092;51.996;4.458;2023-06-05T03:28:49;12.50;99.90
25112;DHT22;13092;51.996;4.458;2023-06-05T03:31:19;12.40;99.90
25112;DHT22;13092;51.996;4.458;2023-06-05T03:33:52;12.40;99.90
25112;DHT22;13092;51.996;4.458;2023-06-05T03:36:29;12.40;99.90
25112;DHT22;13092;51.996;4.458;2023-06-05T03:39:08;12.30;99.90
25112;DHT22;13092;51.996;4.458;2023-06-05T03:41:41;12.40;99.90
25112;DHT22;13092;51.996;4.458;2023-06-05T03:44:14;12.40;99.90
25112;DHT22;13092;51.996;4.458;2023-06-05T03:46:59;12.30;99.90
25112;DHT22;13092;51.996;4.458;2023-06-05T03:49:33;12.30;99.90
25112;DHT22;13092;51.996;4.458;2023-06-05T03:52:13;12.20;99.90
25112;DHT22;13092;51.996;4.458;2023-06-05T03:55:01;12.20;99.90
25112;DHT22;13092;51.996;4.458;2023-06-05T03:57:31;12.20;99.90
25112;DHT22;13092;51.996;4.458;2023-06-05T04:00:00;12.20;99.90
25112;DHT22;13092;51.996;4.458;2023-06-05T04:02:31;12.20;99.90
25112;DHT22;13092;51.996;4.458;2023-06-05T04:05:09;12.30;99.90
25112;DHT22;13092;51.996;4.458;2023-06-05T04:07:42;12.30;99.90
25112;DHT22;13092;51.996;4.458;2023-06-05T04:10:10;12.40;99.90
25112;DHT22;13092;51.996;4.458;2023-06-05T04:12:41;12.20;99.90
25112;DHT22;13092;51.996;4.458;2023-06-05T04:15:10;12.30;99.90
25112;DHT22;13092;51.996;4.458;2023-06-05T04:17:42;12.40;99.90
25112;DHT22;13092;51.996;4.458;2023-06-05T04:20:15;12.40;99.90
25112;DHT22;13092;51.996;4.458;2023-06-05T04:22:46;12.40;99.90
25112;DHT22;13092;51.996;4.458;2023-06-05T04:25:16;12.40;99.90
25112;DHT22;13092;51.996;4.458;2023-06-05T04:27:47;12.40;99.90
25112;DHT22;13092;51.996;4.458;2023-06-05T04:30:18;12.40;99.90
25112;DHT22;13092;51.996;4.458;2023-06-05T04:32:52;12.40;99.90
25112;DHT22;13092;51.996;4.458;2023-06-05T04:35:30;12.40;99.90
25112;DHT22;13092;51.996;4.458;2023-06-05T04:38:00;12.50;99.90
25112;DHT22;13092;51.996;4.458;2023-06-05T04:40:29;12.60;99.90
25112;DHT22;13092;51.996;4.458;2023-06-05T04:43:01;12.60;99.90
25112;DHT22;13092;51.996;4.458;2023-06-05T04:45:30;12.70;99.90
25112;DHT22;13092;51.996;4.458;2023-06-05T04:48:02;12.80;99.90
25112;DHT22;13092;51.996;4.458;2023-06-05T04:50:31;12.90;99.90
25112;DHT22;13092;51.996;4.458;2023-06-05T04:53:06;12.90;99.90
25112;DHT22;13092;51.996;4.458;2023-06-05T04:55:45;12.90;99.90
25112;DHT22;13092;51.996;4.458;2023-06-05T04:58:15;13.10;99.90
25112;DHT22;13092;51.996;4.458;2023-06-05T05:00:50;13.20;99.90
25112;DHT22;13092;51.996;4.458;2023-06-05T05:03:21;13.10;99.90
25112;DHT22;13092;51.996;4.458;2023-06-05T05:06:04;13.10;99.90
25112;DHT22;13092;51.996;4.458;2023-06-05T05:08:35;13.20;99.90
25112;DHT22;13092;51.996;4.458;2023-06-05T05:11:07;13.20;99.90
25112;DHT22;13092;51.996;4.458;2023-06-05T05:13:38;13.30;99.90
25112;DHT22;13092;51.996;4.458;2023-06-05T05:16:06;13.30;99.90
25112;DHT22;13092;51.996;4.458;2023-06-05T05:18:40;13.40;99.90
25112;DHT22;13092;51.996;4.458;2023-06-05T05:21:12;13.40;99.90
25112;DHT22;13092;51.996;4.458;2023-06-05T05:23:41;13.40;99.90
25112;DHT22;13092;51.996;4.458;2023-06-05T05:26:16;13.50;99.90
25112;DHT22;13092;51.996;4.458;2023-06-05T05:29:15;13.60;99.90
25112;DHT22;13092;51.996;4.458;2023-06-05T05:31:49;13.70;99.90
25112;DHT22;13092;51.996;4.458;2023-06-05T05:34:24;13.70;99.90
25112;DHT22;13092;51.996;4.458;2023-06-05T05:37:05;13.70;99.90
25112;DHT22;13092;51.996;4.458;2023-06-05T05:39:37;13.70;99.90
25112;DHT22;13092;51.996;4.458;2023-06-05T05:42:11;13.60;99.90
25112;DHT22;13092;51.996;4.458;2023-06-05T05:44:40;13.70;99.90
25112;DHT22;13092;51.996;4.458;2023-06-05T05:47:12;13.80;99.90
25112;DHT22;13092;51.996;4.458;2023-06-05T05:50:29;13.80;99.90
25112;DHT22;13092;51.996;4.458;2023-06-05T05:53:00;13.90;99.90
25112;DHT22;13092;51.996;4.458;2023-06-05T05:55:49;14.00;99.90
25112;DHT22;13092;51.996;4.458;2023-06-05T05:58:19;14.10;99.90
25112;DHT22;13092;51.996;4.458;2023-06-05T06:00:51;14.00;99.90
25112;DHT22;13092;51.996;4.458;2023-06-05T06:03:21;13.90;99.90
25112;DHT22;13092;51.996;4.458;2023-06-05T06:05:53;14.00;99.90
25112;DHT22;13092;51.996;4.458;2023-06-05T06:08:32;13.90;99.90
25112;DHT22;13092;51.996;4.458;2023-06-05T06:11:08;14.00;99.90
25112;DHT22;13092;51.996;4.458;2023-06-05T06:13:42;14.20;99.90
25112;DHT22;13092;51.996;4.458;2023-06-05T06:16:15;14.10;99.90
25112;DHT22;13092;51.996;4.458;2023-06-05T06:18:50;14.20;99.90
25112;DHT22;13092;51.996;4.458;2023-06-05T06:21:37;14.20;99.90
25112;DHT22;13092;51.996;4.458;2023-06-05T06:24:07;14.40;99.90
25112;DHT22;13092;51.996;4.458;2023-06-05T06:26:46;14.40;99.90
25112;DHT22;13092;51.996;4.458;2023-06-05T06:29:18;14.50;99.90
25112;DHT22;13092;51.996;4.458;2023-06-05T06:31:50;14.70;99.90
25112;DHT22;13092;51.996;4.458;2023-06-05T06:34:19;14.60;99.90
25112;DHT22;13092;51.996;4.458;2023-06-05T06:37:04;14.60;99.90
25112;DHT22;13092;51.996;4.458;2023-06-05T06:39:36;14.80;99.90
25112;DHT22;13092;51.996;4.458;2023-06-05T06:42:05;14.80;99.90
25112;DHT22;13092;51.996;4.458;2023-06-05T06:44:39;14.80;99.90
25112;DHT22;13092;51.996;4.458;2023-06-05T06:47:08;15.00;99.90
25112;DHT22;13092;51.996;4.458;2023-06-05T06:49:42;15.10;99.90
25112;DHT22;13092;51.996;4.458;2023-06-05T06:55:07;15.10;99.90
25112;DHT22;13092;51.996;4.458;2023-06-05T06:57:41;15.30;99.90
25112;DHT22;13092;51.996;4.458;2023-06-05T07:00:12;15.40;99.90
25112;DHT22;13092;51.996;4.458;2023-06-05T07:02:44;15.70;99.90
25112;DHT22;13092;51.996;4.458;2023-06-05T07:05:23;15.50;99.90
25112;DHT22;13092;51.996;4.458;2023-06-05T07:07:53;15.50;99.90
25112;DHT22;13092;51.996;4.458;2023-06-05T07:10:36;15.60;99.90
25112;DHT22;13092;51.996;4.458;2023-06-05T07:13:15;15.70;99.90
25112;DHT22;13092;51.996;4.458;2023-06-05T07:15:49;15.70;99.90
25112;DHT22;13092;51.996;4.458;2023-06-05T07:18:23;15.90;99.90
25112;DHT22;13092;51.996;4.458;2023-06-05T07:20:54;15.90;99.90
25112;DHT22;13092;51.996;4.458;2023-06-05T07:23:37;15.80;99.90
25112;DHT22;13092;51.996;4.458;2023-06-05T07:26:16;15.90;99.90
25112;DHT22;13092;51.996;4.458;2023-06-05T07:28:59;15.90;99.90
25112;DHT22;13092;51.996;4.458;2023-06-05T07:32:00;15.80;99.90
25112;DHT22;13092;51.996;4.458;2023-06-05T07:34:35;15.70;99.90
25112;DHT22;13092;51.996;4.458;2023-06-05T07:37:06;15.80;99.90
25112;DHT22;13092;51.996;4.458;2023-06-05T07:39:45;15.80;99.90
25112;DHT22;13092;51.996;4.458;2023-06-05T07:42:25;15.80;99.90
25112;DHT22;13092;51.996;4.458;2023-06-05T07:44:54;15.90;99.90
25112;DHT22;13092;51.996;4.458;2023-06-05T07:47:29;16.00;99.90
25112;DHT22;13092;51.996;4.458;2023-06-05T07:50:18;16.10;99.90
25112;DHT22;13092;51.996;4.458;2023-06-05T07:52:48;16.00;99.90
25112;DHT22;13092;51.996;4.458;2023-06-05T07:55:18;16.20;99.90
25112;DHT22;13092;51.996;4.458;2023-06-05T07:57:54;16.30;99.90
25112;DHT22;13092;51.996;4.458;2023-06-05T08:00:41;16.30;99.90
25112;DHT22;13092;51.996;4.458;2023-06-05T08:03:17;16.30;99.90
25112;DHT22;13092;51.996;4.458;2023-06-05T08:05:49;16.40;99.90
25112;DHT22;13092;51.996;4.458;2023-06-05T08:08:18;16.50;99.90
25112;DHT22;13092;51.996;4.458;2023-06-05T08:11:00;16.60;99.90
25112;DHT22;13092;51.996;4.458;2023-06-05T08:13:32;16.70;99.90
25112;DHT22;13092;51.996;4.458;2023-06-05T08:16:01;16.70;99.90
25112;DHT22;13092;51.996;4.458;2023-06-05T08:18:30;16.80;99.90
25112;DHT22;13092;51.996;4.458;2023-06-05T08:21:26;16.90;99.90
25112;DHT22;13092;51.996;4.458;2023-06-05T08:24:13;17.00;99.90
25112;DHT22;13092;51.996;4.458;2023-06-05T08:26:56;17.10;99.90
25112;DHT22;13092;51.996;4.458;2023-06-05T08:29:26;17.20;99.90
25112;DHT22;13092;51.996;4.458;2023-06-05T08:31:56;17.30;99.90
25112;DHT22;13092;51.996;4.458;2023-06-05T08:34:28;17.30;99.90
25112;DHT22;13092;51.996;4.458;2023-06-05T08:36:57;17.30;99.90
25112;DHT22;13092;51.996;4.458;2023-06-05T08:39:27;17.20;99.90
25112;DHT22;13092;51.996;4.458;2023-06-05T08:42:00;17.50;99.90
25112;DHT22;13092;51.996;4.458;2023-06-05T08:44:34;17.50;99.90
25112;DHT22;13092;51.996;4.458;2023-06-05T08:47:22;17.60;99.90
25112;DHT22;13092;51.996;4.458;2023-06-05T08:49:52;17.70;99.90
25112;DHT22;13092;51.996;4.458;2023-06-05T08:52:25;17.60;99.90
25112;DHT22;13092;51.996;4.458;2023-06-05T08:55:00;17.70;99.90
25112;DHT22;13092;51.996;4.458;2023-06-05T08:57:37;17.80;99.90
25112;DHT22;13092;51.996;4.458;2023-06-05T09:00:20;17.80;99.90
25112;DHT22;13092;51.996;4.458;2023-06-05T09:02:50;17.90;99.90
25112;DHT22;13092;51.996;4.458;2023-06-05T09:05:19;17.90;99.90
25112;DHT22;13092;51.996;4.458;2023-06-05T09:07:51;17.90;99.90
25112;DHT22;13092;51.996;4.458;2023-06-05T09:10:25;18.00;99.90
25112;DHT22;13092;51.996;4.458;2023-06-05T09:12:57;18.10;99.90
25112;DHT22;13092;51.996;4.458;2023-06-05T09:15:34;18.20;99.90
25112;DHT22;13092;51.996;4.458;2023-06-05T09:18:10;18.20;99.90
25112;DHT22;13092;51.996;4.458;2023-06-05T09:21:12;18.40;99.90
25112;DHT22;13092;51.996;4.458;2023-06-05T09:23:47;18.50;99.90
25112;DHT22;13092;51.996;4.458;2023-06-05T09:26:25;18.50;99.90
25112;DHT22;13092;51.996;4.458;2023-06-05T09:28:56;18.50;99.90
25112;DHT22;13092;51.996;4.458;2023-06-05T09:35:01;18.90;99.90
25112;DHT22;13092;51.996;4.458;2023-06-05T09:37:50;19.00;99.90
25112;DHT22;13092;51.996;4.458;2023-06-05T09:40:38;19.10;99.90
25112;DHT22;13092;51.996;4.458;2023-06-05T09:43:21;19.30;99.90
25112;DHT22;13092;51.996;4.458;2023-06-05T09:52:24;19.50;99.90
25112;DHT22;13092;51.996;4.458;2023-06-05T09:55:05;19.70;99.90
25112;DHT22;13092;51.996;4.458;2023-06-05T09:57:56;19.80;99.90
25112;DHT22;13092;51.996;4.458;2023-06-05T10:00:31;19.90;99.90
25112;DHT22;13092;51.996;4.458;2023-06-05T10:03:07;20.10;99.90
25112;DHT22;13092;51.996;4.458;2023-06-05T10:05:44;20.40;99.90
25112;DHT22;13092;51.996;4.458;2023-06-05T10:08:28;20.30;99.90
25112;DHT22;13092;51.996;4.458;2023-06-05T10:11:01;20.20;99.90
25112;DHT22;13092;51.996;4.458;2023-06-05T10:13:30;20.20;99.90
25112;DHT22;13092;51.996;4.458;2023-06-05T10:16:19;20.50;99.90
25112;DHT22;13092;51.996;4.458;2023-06-05T10:18:59;20.60;99.90
25112;DHT22;13092;51.996;4.458;2023-06-05T10:21:27;20.70;99.90
25112;DHT22;13092;51.996;4.458;2023-06-05T10:24:01;20.60;99.90
25112;DHT22;13092;51.996;4.458;2023-06-05T10:33:01;20.70;99.90
25112;DHT22;13092;51.996;4.458;2023-06-05T10:35:45;20.80;99.90
25112;DHT22;13092;51.996;4.458;2023-06-05T10:38:19;21.10;99.90
25112;DHT22;13092;51.996;4.458;2023-06-05T10:41:01;20.90;99.90
25112;DHT22;13092;51.996;4.458;2023-06-05T10:43:45;21.00;99.90
25112;DHT22;13092;51.996;4.458;2023-06-05T10:46:48;21.10;99.90
25112;DHT22;13092;51.996;4.458;2023-06-05T10:49:19;21.50;99.90
25112;DHT22;13092;51.996;4.458;2023-06-05T10:52:03;21.60;99.90
25112;DHT22;13092;51.996;4.458;2023-06-05T10:54:55;21.50;99.90
25112;DHT22;13092;51.996;4.458;2023-06-05T10:57:29;21.60;99.90
25112;DHT22;13092;51.996;4.458;2023-06-05T11:00:20;21.40;99.90
25112;DHT22;13092;51.996;4.458;2023-06-05T11:02:49;21.50;99.90
25112;DHT22;13092;51.996;4.458;2023-06-05T11:05:20;21.60;99.90
25112;DHT22;13092;51.996;4.458;2023-06-05T11:08:10;21.70;99.90
25112;DHT22;13092;51.996;4.458;2023-06-05T11:11:05;21.90;99.90
25112;DHT22;13092;51.996;4.458;2023-06-05T11:13:57;22.00;99.90
25112;DHT22;13092;51.996;4.458;2023-06-05T11:16:27;21.90;99.90
25112;DHT22;13092;51.996;4.458;2023-06-05T11:22:05;22.20;99.90
25112;DHT22;13092;51.996;4.458;2023-06-05T11:24:38;22.30;99.90
25112;DHT22;13092;51.996;4.458;2023-06-05T11:27:07;22.40;99.90
25112;DHT22;13092;51.996;4.458;2023-06-05T11:29:57;22.40;99.90
25112;DHT22;13092;51.996;4.458;2023-06-05T11:32:26;22.50;99.90
25112;DHT22;13092;51.996;4.458;2023-06-05T11:34:55;22.60;99.90
25112;DHT22;13092;51.996;4.458;2023-06-05T11:37:25;22.30;99.90
25112;DHT22;13092;51.996;4.458;2023-06-05T11:39:53;22.40;99.90
25112;DHT22;13092;51.996;4.458;2023-06-05T11:42:22;22.40;99.90
25112;DHT22;13092;51.996;4.458;2023-06-05T11:44:53;22.30;99.90
25112;DHT22;13092;51.996;4.458;2023-06-05T11:47:25;22.20;99.90
25112;DHT22;13092;51.996;4.458;2023-06-05T11:50:07;22.30;99.90
25112;DHT22;13092;51.996;4.458;2023-06-05T11:52:36;22.40;99.90
25112;DHT22;13092;51.996;4.458;2023-06-05T11:55:11;22.40;99.90
25112;DHT22;13092;51.996;4.458;2023-06-05T11:57:42;22.50;99.90
25112;DHT22;13092;51.996;4.458;2023-06-05T12:00:23;22.20;99.90
25112;DHT22;13092;51.996;4.458;2023-06-05T12:02:53;22.10;99.90
25112;DHT22;13092;51.996;4.458;2023-06-05T12:05:22;21.90;99.90
25112;DHT22;13092;51.996;4.458;2023-06-05T12:07:50;21.80;99.90
25112;DHT22;13092;51.996;4.458;2023-06-05T12:10:33;21.70;99.90
25112;DHT22;13092;51.996;4.458;2023-06-05T12:13:02;21.60;99.90
25112;DHT22;13092;51.996;4.458;2023-06-05T12:15:37;21.80;99.90
25112;DHT22;13092;51.996;4.458;2023-06-05T12:18:13;21.50;99.90
25112;DHT22;13092;51.996;4.458;2023-06-05T12:20:43;21.40;99.90
25112;DHT22;13092;51.996;4.458;2023-06-05T12:23:19;21.40;99.90
25112;DHT22;13092;51.996;4.458;2023-06-05T12:25:58;21.40;99.90
25112;DHT22;13092;51.996;4.458;2023-06-05T12:28:27;21.50;99.90
25112;DHT22;13092;51.996;4.458;2023-06-05T12:30:57;21.40;99.90
25112;DHT22;13092;51.996;4.458;2023-06-05T12:33:28;21.30;99.90
25112;DHT22;13092;51.996;4.458;2023-06-05T12:36:05;21.30;99.90
25112;DHT22;13092;51.996;4.458;2023-06-05T12:38:38;21.40;99.90
25112;DHT22;13092;51.996;4.458;2023-06-05T12:41:07;21.40;99.90
25112;DHT22;13092;51.996;4.458;2023-06-05T12:43:35;21.40;99.90
25112;DHT22;13092;51.996;4.458;2023-06-05T12:46:05;21.30;99.90
25112;DHT22;13092;51.996;4.458;2023-06-05T12:48:40;21.30;99.90
25112;DHT22;13092;51.996;4.458;2023-06-05T12:51:08;21.10;99.90
25112;DHT22;13092;51.996;4.458;2023-06-05T12:53:36;21.00;99.90
25112;DHT22;13092;51.996;4.458;2023-06-05T12:56:05;21.00;99.90
25112;DHT22;13092;51.996;4.458;2023-06-05T12:58:33;20.90;99.90
25112;DHT22;13092;51.996;4.458;2023-06-05T13:01:02;21.00;99.90
25112;DHT22;13092;51.996;4.458;2023-06-05T13:03:30;20.80;99.90
25112;DHT22;13092;51.996;4.458;2023-06-05T13:06:02;20.80;99.90
25112;DHT22;13092;51.996;4.458;2023-06-05T13:08:31;20.80;99.90
25112;DHT22;13092;51.996;4.458;2023-06-05T13:11:01;20.80;99.90
25112;DHT22;13092;51.996;4.458;2023-06-05T13:13:32;20.70;99.90
25112;DHT22;13092;51.996;4.458;2023-06-05T13:16:01;20.60;99.90
25112;DHT22;13092;51.996;4.458;2023-06-05T13:18:32;20.80;99.90
25112;DHT22;13092;51.996;4.458;2023-06-05T13:21:02;20.50;99.90
25112;DHT22;13092;51.996;4.458;2023-06-05T13:23:30;20.50;99.90
25112;DHT22;13092;51.996;4.458;2023-06-05T13:25:59;20.60;99.90
25112;DHT22;13092;51.996;4.458;2023-06-05T13:28:32;20.70;99.90
25112;DHT22;13092;51.996;4.458;2023-06-05T13:31:10;20.80;99.90
25112;DHT22;13092;51.996;4.458;2023-06-05T13:33:44;20.80;99.90
25112;DHT22;13092;51.996;4.458;2023-06-05T13:36:18;20.80;99.90
25112;DHT22;13092;51.996;4.458;2023-06-05T13:38:46;20.80;99.90
25112;DHT22;13092;51.996;4.458;2023-06-05T13:41:15;20.80;99.90
25112;DHT22;13092;51.996;4.458;2023-06-05T13:43:48;20.70;99.90
25112;DHT22;13092;51.996;4.458;2023-06-05T13:46:16;20.70;99.90
25112;DHT22;13092;51.996;4.458;2023-06-05T13:48:45;20.80;99.90
25112;DHT22;13092;51.996;4.458;2023-06-05T13:51:14;20.70;99.90
25112;DHT22;13092;51.996;4.458;2023-06-05T13:53:47;20.40;99.90
25112;DHT22;13092;51.996;4.458;2023-06-05T13:56:15;20.50;99.90
25112;DHT22;13092;51.996;4.458;2023-06-05T13:58:45;20.50;99.90
25112;DHT22;13092;51.996;4.458;2023-06-05T14:01:24;20.50;99.90
25112;DHT22;13092;51.996;4.458;2023-06-05T14:03:56;20.40;99.90
25112;DHT22;13092;51.996;4.458;2023-06-05T14:06:25;20.30;99.90
25112;DHT22;13092;51.996;4.458;2023-06-05T14:09:26;20.30;99.90
25112;DHT22;13092;51.996;4.458;2023-06-05T14:12:02;20.30;99.90
25112;DHT22;13092;51.996;4.458;2023-06-05T14:14:35;20.20;99.90
25112;DHT22;13092;51.996;4.458;2023-06-05T14:17:04;20.40;99.90
25112;DHT22;13092;51.996;4.458;2023-06-05T14:19:32;20.60;99.90
25112;DHT22;13092;51.996;4.458;2023-06-05T14:22:00;20.60;99.90
25112;DHT22;13092;51.996;4.458;2023-06-05T14:24:31;20.60;99.90
25112;DHT22;13092;51.996;4.458;2023-06-05T14:27:02;20.50;99.90
25112;DHT22;13092;51.996;4.458;2023-06-05T14:29:32;20.40;99.90
25112;DHT22;13092;51.996;4.458;2023-06-05T14:32:02;20.30;99.90
25112;DHT22;13092;51.996;4.458;2023-06-05T14:34:34;20.30;99.90
25112;DHT22;13092;51.996;4.458;2023-06-05T14:37:05;20.10;99.90
25112;DHT22;13092;51.996;4.458;2023-06-05T14:39:42;20.00;99.90
25112;DHT22;13092;51.996;4.458;2023-06-05T14:42:14;20.10;99.90
25112;DHT22;13092;51.996;4.458;2023-06-05T14:44:42;20.20;99.90
25112;DHT22;13092;51.996;4.458;2023-06-05T14:47:14;20.30;99.90
25112;DHT22;13092;51.996;4.458;2023-06-05T14:49:45;20.20;99.90
25112;DHT22;13092;51.996;4.458;2023-06-05T14:52:17;20.00;99.90
25112;DHT22;13092;51.996;4.458;2023-06-05T14:54:54;20.00;99.90
25112;DHT22;13092;51.996;4.458;2023-06-05T14:57:32;19.90;99.90
25112;DHT22;13092;51.996;4.458;2023-06-05T15:00:03;20.00;99.90
25112;DHT22;13092;51.996;4.458;2023-06-05T15:02:35;20.00;99.90
25112;DHT22;13092;51.996;4.458;2023-06-05T15:05:04;20.20;99.90
25112;DHT22;13092;51.996;4.458;2023-06-05T15:07:37;20.20;99.90
25112;DHT22;13092;51.996;4.458;2023-06-05T15:10:08;20.40;99.90
25112;DHT22;13092;51.996;4.458;2023-06-05T15:12:40;20.50;99.90
25112;DHT22;13092;51.996;4.458;2023-06-05T15:15:09;20.40;99.90
25112;DHT22;13092;51.996;4.458;2023-06-05T15:17:40;20.40;99.90
25112;DHT22;13092;51.996;4.458;2023-06-05T15:20:14;20.30;99.90
25112;DHT22;13092;51.996;4.458;2023-06-05T15:22:54;20.00;99.90
25112;DHT22;13092;51.996;4.458;2023-06-05T15:25:45;20.20;99.90
25112;DHT22;13092;51.996;4.458;2023-06-05T15:28:14;20.10;99.90
25112;DHT22;13092;51.996;4.458;2023-06-05T15:30:42;19.90;99.90
25112;DHT22;13092;51.996;4.458;2023-06-05T15:33:11;19.80;99.90
25112;DHT22;13092;51.996;4.458;2023-06-05T15:35:41;19.70;99.90
25112;DHT22;13092;51.996;4.458;2023-06-05T15:38:11;19.90;99.90
25112;DHT22;13092;51.996;4.458;2023-06-05T15:40:47;20.10;99.90
25112;DHT22;13092;51.996;4.458;2023-06-05T15:43:15;20.10;99.90
25112;DHT22;13092;51.996;4.458;2023-06-05T15:45:49;20.00;99.90
25112;DHT22;13092;51.996;4.458;2023-06-05T15:48:18;19.90;99.90
25112;DHT22;13092;51.996;4.458;2023-06-05T15:50:47;19.90;99.90
25112;DHT22;13092;51.996;4.458;2023-06-05T15:53:16;19.90;99.90
25112;DHT22;13092;51.996;4.458;2023-06-05T15:55:51;20.00;99.90
25112;DHT22;13092;51.996;4.458;2023-06-05T15:58:19;19.90;99.90
25112;DHT22;13092;51.996;4.458;2023-06-05T16:00:51;19.80;99.90
25112;DHT22;13092;51.996;4.458;2023-06-05T16:03:19;19.80;99.90
25112;DHT22;13092;51.996;4.458;2023-06-05T16:05:48;19.70;99.90
25112;DHT22;13092;51.996;4.458;2023-06-05T16:08:20;19.70;99.90
25112;DHT22;13092;51.996;4.458;2023-06-05T16:10:53;19.70;99.90
25112;DHT22;13092;51.996;4.458;2023-06-05T16:13:21;19.60;99.90
25112;DHT22;13092;51.996;4.458;2023-06-05T16:15:51;19.60;99.90
25112;DHT22;13092;51.996;4.458;2023-06-05T16:18:22;19.60;99.90
25112;DHT22;13092;51.996;4.458;2023-06-05T16:20:51;19.60;99.90
25112;DHT22;13092;51.996;4.458;2023-06-05T16:23:19;19.70;99.90
25112;DHT22;13092;51.996;4.458;2023-06-05T16:25:47;19.50;99.90
25112;DHT22;13092;51.996;4.458;2023-06-05T16:28:18;19.40;99.90
25112;DHT22;13092;51.996;4.458;2023-06-05T16:30:46;19.40;99.90
25112;DHT22;13092;51.996;4.458;2023-06-05T16:33:14;19.40;99.90
25112;DHT22;13092;51.996;4.458;2023-06-05T16:35:43;19.50;99.90
25112;DHT22;13092;51.996;4.458;2023-06-05T16:38:12;19.50;99.90
25112;DHT22;13092;51.996;4.458;2023-06-05T16:40:43;19.30;99.90
25112;DHT22;13092;51.996;4.458;2023-06-05T16:43:15;19.60;99.90
25112;DHT22;13092;51.996;4.458;2023-06-05T16:45:50;19.60;99.90
25112;DHT22;13092;51.996;4.458;2023-06-05T16:48:35;19.50;99.90